sensor_id;sensor_type;location;lat;lon;timestamp;temperature;humidity
40287;DHT22;25998;46.604;13.610;2024-03-02T00:00:55;6.90;99.90
40287;DHT22;25998;46.604;13.610;2024-03-02T00:04:07;6.90;99.90
40287;DHT22;25998;46.604;13.610;2024-03-02T00:07:18;6.90;99.90
40287;DHT22;25998;46.604;13.610;2024-03-02T00:10:48;7.00;99.90
40287;DHT22;25998;46.604;13.610;2024-03-02T00:13:59;7.00;99.90
40287;DHT22;25998;46.604;13.610;2024-03-02T00:17:19;7.00;99.90
40287;DHT22;25998;46.604;13.610;2024-03-02T00:20:32;6.90;99.90
40287;DHT22;25998;46.604;13.610;2024-03-02T00:23:42;6.90;99.90
40287;DHT22;25998;46.604;13.610;2024-03-02T00:26:53;6.80;99.90
40287;DHT22;25998;46.604;13.610;2024-03-02T00:33:48;6.80;99.90
40287;DHT22;25998;46.604;13.610;2024-03-02T00:36:59;6.80;99.90
40287;DHT22;25998;46.604;13.610;2024-03-02T00:40:11;6.70;99.90
40287;DHT22;25998;46.604;13.610;2024-03-02T00:43:41;6.70;99.90
40287;DHT22;25998;46.604;13.610;2024-03-02T00:46:53;6.60;99.90
40287;DHT22;25998;46.604;13.610;2024-03-02T00:50:05;6.60;99.90
40287;DHT22;25998;46.604;13.610;2024-03-02T00:53:20;6.50;99.90
40287;DHT22;25998;46.604;13.610;2024-03-02T00:56:34;6.60;99.90
40287;DHT22;25998;46.604;13.610;2024-03-02T00:59:45;6.50;99.90
40287;DHT22;25998;46.604;13.610;2024-03-02T01:02:56;6.40;99.90
40287;DHT22;25998;46.604;13.610;2024-03-02T01:06:08;6.60;99.90
40287;DHT22;25998;46.604;13.610;2024-03-02T01:09:19;6.70;99.90
40287;DHT22;25998;46.604;13.610;2024-03-02T01:12:30;6.60;99.90
40287;DHT22;25998;46.604;13.610;2024-03-02T01:15:41;6.60;99.90
40287;DHT22;25998;46.604;13.610;2024-03-02T01:18:52;6.50;99.90
40287;DHT22;25998;46.604;13.610;2024-03-02T01:22:03;6.50;99.90
40287;DHT22;25998;46.604;13.610;2024-03-02T01:25:14;6.40;99.90
40287;DHT22;25998;46.604;13.610;2024-03-02T01:28:25;6.40;99.90
40287;DHT22;25998;46.604;13.610;2024-03-02T01:31:36;6.40;99.90
40287;DHT22;25998;46.604;13.610;2024-03-02T01:34:47;6.40;99.90
40287;DHT22;25998;46.604;13.610;2024-03-02T01:37:57;6.40;99.90
40287;DHT22;25998;46.604;13.610;2024-03-02T01:41:08;6.40;99.90
40287;DHT22;25998;46.604;13.610;2024-03-02T01:44:19;6.50;99.90
40287;DHT22;25998;46.604;13.610;2024-03-02T01:47:30;6.60;99.90
40287;DHT22;25998;46.604;13.610;2024-03-02T01:50:41;6.50;99.90
40287;DHT22;25998;46.604;13.610;2024-03-02T01:53:52;6.50;99.90
40287;DHT22;25998;46.604;13.610;2024-03-02T01:57:03;6.70;99.90
40287;DHT22;25998;46.604;13.610;2024-03-02T02:00:15;6.70;99.90
40287;DHT22;25998;46.604;13.610;2024-03-02T02:03:26;6.70;99.90
40287;DHT22;25998;46.604;13.610;2024-03-02T02:06:37;6.70;99.90
40287;DHT22;25998;46.604;13.610;2024-03-02T02:09:47;6.70;99.90
40287;DHT22;25998;46.604;13.610;2024-03-02T02:12:58;6.70;99.90
40287;DHT22;25998;46.604;13.610;2024-03-02T02:16:09;6.70;99.90
40287;DHT22;25998;46.604;13.610;2024-03-02T02:19:20;6.70;99.90
40287;DHT22;25998;46.604;13.610;2024-03-02T02:22:31;6.60;99.90
40287;DHT22;25998;46.604;13.610;2024-03-02T02:25:42;6.40;99.90
40287;DHT22;25998;46.604;13.610;2024-03-02T02:28:53;6.10;99.90
40287;DHT22;25998;46.604;13.610;2024-03-02T02:32:04;6.00;99.90
40287;DHT22;25998;46.604;13.610;2024-03-02T02:35:15;5.90;99.90
40287;DHT22;25998;46.604;13.610;2024-03-02T02:38:26;6.00;99.90
40287;DHT22;25998;46.604;13.610;2024-03-02T02:41:37;6.00;99.90
40287;DHT22;25998;46.604;13.610;2024-03-02T02:44:48;5.90;99.90
40287;DHT22;25998;46.604;13.610;2024-03-02T02:47:58;5.90;99.90
40287;DHT22;25998;46.604;13.610;2024-03-02T02:51:11;6.00;99.90
40287;DHT22;25998;46.604;13.610;2024-03-02T02:54:22;5.90;99.90
40287;DHT22;25998;46.604;13.610;2024-03-02T02:57:34;6.00;99.90
40287;DHT22;25998;46.604;13.610;2024-03-02T03:00:52;6.00;99.90
40287;DHT22;25998;46.604;13.610;2024-03-02T03:04:05;6.10;99.90
40287;DHT22;25998;46.604;13.610;2024-03-02T03:07:16;6.20;99.90
40287;DHT22;25998;46.604;13.610;2024-03-02T03:10:27;6.20;99.90
40287;DHT22;25998;46.604;13.610;2024-03-02T03:13:38;6.30;99.90
40287;DHT22;25998;46.604;13.610;2024-03-02T03:16:49;6.40;99.90
40287;DHT22;25998;46.604;13.610;2024-03-02T03:20:01;6.40;99.90
40287;DHT22;25998;46.604;13.610;2024-03-02T03:23:13;6.20;99.90
40287;DHT22;25998;46.604;13.610;2024-03-02T03:26:26;6.20;99.90
40287;DHT22;25998;46.604;13.610;2024-03-02T03:29:37;6.10;99.90
40287;DHT22;25998;46.604;13.610;2024-03-02T03:32:48;6.10;99.90
40287;DHT22;25998;46.604;13.610;2024-03-02T03:36:00;6.10;99.90
40287;DHT22;25998;46.604;13.610;2024-03-02T03:39:10;6.10;99.90
40287;DHT22;25998;46.604;13.610;2024-03-02T03:42:21;6.10;99.90
40287;DHT22;25998;46.604;13.610;2024-03-02T03:45:32;6.10;99.90
40287;DHT22;25998;46.604;13.610;2024-03-02T03:48:43;6.00;99.90
40287;DHT22;25998;46.604;13.610;2024-03-02T03:51:54;6.10;99.90
40287;DHT22;25998;46.604;13.610;2024-03-02T03:55:05;6.20;99.90
40287;DHT22;25998;46.604;13.610;2024-03-02T03:58:16;6.10;99.90
40287;DHT22;25998;46.604;13.610;2024-03-02T04:01:29;5.90;99.90
40287;DHT22;25998;46.604;13.610;2024-03-02T04:04:40;5.80;99.90
40287;DHT22;25998;46.604;13.610;2024-03-02T04:07:51;5.70;99.90
40287;DHT22;25998;46.604;13.610;2024-03-02T04:11:02;5.60;99.90
40287;DHT22;25998;46.604;13.610;2024-03-02T04:14:13;5.60;99.90
40287;DHT22;25998;46.604;13.610;2024-03-02T04:17:24;5.50;99.90
40287;DHT22;25998;46.604;13.610;2024-03-02T04:20:35;5.40;99.90
40287;DHT22;25998;46.604;13.610;2024-03-02T04:23:46;5.40;99.90
40287;DHT22;25998;46.604;13.610;2024-03-02T04:26:57;5.40;99.90
40287;DHT22;25998;46.604;13.610;2024-03-02T04:30:08;5.40;99.90
40287;DHT22;25998;46.604;13.610;2024-03-02T04:33:19;5.40;99.90
40287;DHT22;25998;46.604;13.610;2024-03-02T04:36:29;5.40;99.90
40287;DHT22;25998;46.604;13.610;2024-03-02T04:39:40;5.40;99.90
40287;DHT22;25998;46.604;13.610;2024-03-02T04:42:51;5.30;99.90
40287;DHT22;25998;46.604;13.610;2024-03-02T04:46:02;5.40;99.90
40287;DHT22;25998;46.604;13.610;2024-03-02T04:49:13;5.50;99.90
40287;DHT22;25998;46.604;13.610;2024-03-02T04:52:24;5.50;99.90
40287;DHT22;25998;46.604;13.610;2024-03-02T04:55:35;5.50;99.90
40287;DHT22;25998;46.604;13.610;2024-03-02T04:59:06;5.70;99.90
40287;DHT22;25998;46.604;13.610;2024-03-02T05:02:17;5.60;99.90
40287;DHT22;25998;46.604;13.610;2024-03-02T05:05:28;5.50;99.90
40287;DHT22;25998;46.604;13.610;2024-03-02T05:08:39;5.40;99.90
40287;DHT22;25998;46.604;13.610;2024-03-02T05:11:50;5.40;99.90
40287;DHT22;25998;46.604;13.610;2024-03-02T05:15:19;5.40;99.90
40287;DHT22;25998;46.604;13.610;2024-03-02T05:18:30;5.50;99.90
40287;DHT22;25998;46.604;13.610;2024-03-02T05:21:40;5.60;99.90
40287;DHT22;25998;46.604;13.610;2024-03-02T05:24:51;5.80;99.90
40287;DHT22;25998;46.604;13.610;2024-03-02T05:28:02;5.70;99.90
40287;DHT22;25998;46.604;13.610;2024-03-02T05:31:16;5.50;99.90
40287;DHT22;25998;46.604;13.610;2024-03-02T05:34:27;5.30;99.90
40287;DHT22;25998;46.604;13.610;2024-03-02T05:37:38;5.30;99.90
40287;DHT22;25998;46.604;13.610;2024-03-02T05:40:49;5.30;99.90
40287;DHT22;25998;46.604;13.610;2024-03-02T05:44:00;5.30;99.90
40287;DHT22;25998;46.604;13.610;2024-03-02T05:47:12;5.30;99.90
40287;DHT22;25998;46.604;13.610;2024-03-02T05:50:23;5.30;99.90
40287;DHT22;25998;46.604;13.610;2024-03-02T05:53:33;5.40;99.90
40287;DHT22;25998;46.604;13.610;2024-03-02T05:56:44;5.50;99.90
40287;DHT22;25998;46.604;13.610;2024-03-02T05:59:55;5.60;99.90
40287;DHT22;25998;46.604;13.610;2024-03-02T06:03:07;5.70;99.90
40287;DHT22;25998;46.604;13.610;2024-03-02T06:06:20;5.60;99.90
40287;DHT22;25998;46.604;13.610;2024-03-02T06:09:31;5.60;99.90
40287;DHT22;25998;46.604;13.610;2024-03-02T06:12:42;5.50;99.90
40287;DHT22;25998;46.604;13.610;2024-03-02T06:15:53;5.60;99.90
40287;DHT22;25998;46.604;13.610;2024-03-02T06:19:04;5.60;99.90
40287;DHT22;25998;46.604;13.610;2024-03-02T06:22:15;5.60;99.90
40287;DHT22;25998;46.604;13.610;2024-03-02T06:25:25;5.60;99.90
40287;DHT22;25998;46.604;13.610;2024-03-02T06:28:36;5.70;99.90
40287;DHT22;25998;46.604;13.610;2024-03-02T06:31:47;5.70;99.90
40287;DHT22;25998;46.604;13.610;2024-03-02T06:34:58;5.80;99.90
40287;DHT22;25998;46.604;13.610;2024-03-02T06:38:10;5.80;99.90
40287;DHT22;25998;46.604;13.610;2024-03-02T06:41:21;5.80;99.90
40287;DHT22;25998;46.604;13.610;2024-03-02T06:44:31;5.80;99.90
40287;DHT22;25998;46.604;13.610;2024-03-02T06:47:42;5.80;99.90
40287;DHT22;25998;46.604;13.610;2024-03-02T06:50:53;6.20;99.90
40287;DHT22;25998;46.604;13.610;2024-03-02T06:54:04;6.30;99.90
40287;DHT22;25998;46.604;13.610;2024-03-02T06:57:15;6.20;99.90
40287;DHT22;25998;46.604;13.610;2024-03-02T07:00:27;6.10;99.90
40287;DHT22;25998;46.604;13.610;2024-03-02T07:03:38;6.10;99.90
40287;DHT22;25998;46.604;13.610;2024-03-02T07:06:50;6.10;99.90
40287;DHT22;25998;46.604;13.610;2024-03-02T07:10:01;6.10;99.90
40287;DHT22;25998;46.604;13.610;2024-03-02T07:13:12;6.20;99.90
40287;DHT22;25998;46.604;13.610;2024-03-02T07:16:23;6.20;99.90
40287;DHT22;25998;46.604;13.610;2024-03-02T07:19:45;6.30;99.90
40287;DHT22;25998;46.604;13.610;2024-03-02T07:22:55;6.40;99.90
40287;DHT22;25998;46.604;13.610;2024-03-02T07:26:06;6.50;99.90
40287;DHT22;25998;46.604;13.610;2024-03-02T07:29:18;6.50;99.90
40287;DHT22;25998;46.604;13.610;2024-03-02T07:32:29;6.50;99.90
40287;DHT22;25998;46.604;13.610;2024-03-02T07:35:40;6.40;99.90
40287;DHT22;25998;46.604;13.610;2024-03-02T07:38:50;6.40;99.90
40287;DHT22;25998;46.604;13.610;2024-03-02T07:42:01;6.50;99.90
40287;DHT22;25998;46.604;13.610;2024-03-02T07:45:12;6.50;99.90
40287;DHT22;25998;46.604;13.610;2024-03-02T07:48:23;6.50;99.90
40287;DHT22;25998;46.604;13.610;2024-03-02T07:51:34;6.50;99.90
40287;DHT22;25998;46.604;13.610;2024-03-02T07:54:46;6.60;99.90
40287;DHT22;25998;46.604;13.610;2024-03-02T07:57:57;6.60;99.90
40287;DHT22;25998;46.604;13.610;2024-03-02T08:01:08;6.70;99.90
40287;DHT22;25998;46.604;13.610;2024-03-02T08:04:19;6.70;99.90
40287;DHT22;25998;46.604;13.610;2024-03-02T08:07:30;6.80;99.90
40287;DHT22;25998;46.604;13.610;2024-03-02T08:10:41;6.80;99.90
40287;DHT22;25998;46.604;13.610;2024-03-02T08:13:52;6.80;99.90
40287;DHT22;25998;46.604;13.610;2024-03-02T08:17:05;6.80;99.90
40287;DHT22;25998;46.604;13.610;2024-03-02T08:20:20;6.70;99.90
40287;DHT22;25998;46.604;13.610;2024-03-02T08:23:30;6.70;99.90
40287;DHT22;25998;46.604;13.610;2024-03-02T08:26:42;6.70;99.90
40287;DHT22;25998;46.604;13.610;2024-03-02T08:29:53;6.80;99.90
40287;DHT22;25998;46.604;13.610;2024-03-02T08:33:04;6.90;99.90
40287;DHT22;25998;46.604;13.610;2024-03-02T08:36:16;7.00;99.90
40287;DHT22;25998;46.604;13.610;2024-03-02T08:39:27;7.10;99.90
40287;DHT22;25998;46.604;13.610;2024-03-02T08:42:39;7.10;99.90
40287;DHT22;25998;46.604;13.610;2024-03-02T08:45:50;7.10;99.90
40287;DHT22;25998;46.604;13.610;2024-03-02T08:49:01;7.30;99.90
40287;DHT22;25998;46.604;13.610;2024-03-02T08:52:12;7.40;99.90
40287;DHT22;25998;46.604;13.610;2024-03-02T08:55:23;7.60;99.90
40287;DHT22;25998;46.604;13.610;2024-03-02T08:58:34;7.50;99.90
40287;DHT22;25998;46.604;13.610;2024-03-02T09:01:45;7.40;99.90
40287;DHT22;25998;46.604;13.610;2024-03-02T09:04:56;7.50;99.90
40287;DHT22;25998;46.604;13.610;2024-03-02T09:08:08;7.70;99.90
40287;DHT22;25998;46.604;13.610;2024-03-02T09:11:18;7.80;99.90
40287;DHT22;25998;46.604;13.610;2024-03-02T09:14:29;7.80;99.90
40287;DHT22;25998;46.604;13.610;2024-03-02T09:17:40;7.90;99.90
40287;DHT22;25998;46.604;13.610;2024-03-02T09:20:51;7.90;99.90
40287;DHT22;25998;46.604;13.610;2024-03-02T09:24:02;8.10;99.90
40287;DHT22;25998;46.604;13.610;2024-03-02T09:27:14;8.10;99.90
40287;DHT22;25998;46.604;13.610;2024-03-02T09:30:24;8.30;99.90
40287;DHT22;25998;46.604;13.610;2024-03-02T09:33:35;8.80;99.90
40287;DHT22;25998;46.604;13.610;2024-03-02T09:36:46;9.20;99.90
40287;DHT22;25998;46.604;13.610;2024-03-02T09:39:57;9.30;99.90
40287;DHT22;25998;46.604;13.610;2024-03-02T09:43:08;9.30;99.90
40287;DHT22;25998;46.604;13.610;2024-03-02T09:46:19;9.20;99.90
40287;DHT22;25998;46.604;13.610;2024-03-02T09:49:30;9.10;99.90
40287;DHT22;25998;46.604;13.610;2024-03-02T09:52:46;9.10;99.90
40287;DHT22;25998;46.604;13.610;2024-03-02T09:56:01;9.30;99.90
40287;DHT22;25998;46.604;13.610;2024-03-02T09:59:12;9.40;99.90
40287;DHT22;25998;46.604;13.610;2024-03-02T10:02:26;9.50;99.90
40287;DHT22;25998;46.604;13.610;2024-03-02T10:05:37;9.50;99.90
40287;DHT22;25998;46.604;13.610;2024-03-02T10:08:49;9.60;99.90
40287;DHT22;25998;46.604;13.610;2024-03-02T10:12:10;9.80;99.90
40287;DHT22;25998;46.604;13.610;2024-03-02T10:15:25;9.80;99.90
40287;DHT22;25998;46.604;13.610;2024-03-02T10:18:36;10.00;99.90
40287;DHT22;25998;46.604;13.610;2024-03-02T10:21:48;10.00;99.90
40287;DHT22;25998;46.604;13.610;2024-03-02T10:25:00;9.90;99.90
40287;DHT22;25998;46.604;13.610;2024-03-02T10:28:11;10.40;99.90
40287;DHT22;25998;46.604;13.610;2024-03-02T10:31:22;10.60;99.90
40287;DHT22;25998;46.604;13.610;2024-03-02T10:34:41;11.00;99.90
40287;DHT22;25998;46.604;13.610;2024-03-02T10:37:53;10.90;99.90
40287;DHT22;25998;46.604;13.610;2024-03-02T10:41:03;10.70;99.90
40287;DHT22;25998;46.604;13.610;2024-03-02T10:44:16;10.60;99.90
40287;DHT22;25998;46.604;13.610;2024-03-02T10:47:27;10.50;99.90
40287;DHT22;25998;46.604;13.610;2024-03-02T10:50:40;10.30;99.90
40287;DHT22;25998;46.604;13.610;2024-03-02T10:53:52;10.20;99.90
40287;DHT22;25998;46.604;13.610;2024-03-02T10:57:03;10.10;99.90
40287;DHT22;25998;46.604;13.610;2024-03-02T11:00:15;10.20;99.90
40287;DHT22;25998;46.604;13.610;2024-03-02T11:03:26;10.30;99.90
40287;DHT22;25998;46.604;13.610;2024-03-02T11:06:37;10.40;99.90
40287;DHT22;25998;46.604;13.610;2024-03-02T11:09:59;10.40;99.90
40287;DHT22;25998;46.604;13.610;2024-03-02T11:13:12;10.50;99.90
40287;DHT22;25998;46.604;13.610;2024-03-02T11:16:34;10.40;99.90
40287;DHT22;25998;46.604;13.610;2024-03-02T11:19:46;10.40;99.90
40287;DHT22;25998;46.604;13.610;2024-03-02T11:22:57;10.40;99.90
40287;DHT22;25998;46.604;13.610;2024-03-02T11:26:21;10.50;99.90
40287;DHT22;25998;46.604;13.610;2024-03-02T11:29:43;11.10;99.90
40287;DHT22;25998;46.604;13.610;2024-03-02T11:32:57;11.60;99.90
40287;DHT22;25998;46.604;13.610;2024-03-02T11:36:08;11.50;99.90
40287;DHT22;25998;46.604;13.610;2024-03-02T11:39:19;11.40;99.90
40287;DHT22;25998;46.604;13.610;2024-03-02T11:42:31;11.10;99.90
40287;DHT22;25998;46.604;13.610;2024-03-02T11:45:42;11.10;99.90
40287;DHT22;25998;46.604;13.610;2024-03-02T11:48:54;11.00;99.90
40287;DHT22;25998;46.604;13.610;2024-03-02T11:52:06;11.10;99.90
40287;DHT22;25998;46.604;13.610;2024-03-02T11:55:19;11.30;99.90
40287;DHT22;25998;46.604;13.610;2024-03-02T11:58:30;11.50;99.90
40287;DHT22;25998;46.604;13.610;2024-03-02T12:01:41;11.50;99.90
40287;DHT22;25998;46.604;13.610;2024-03-02T12:04:54;11.50;99.90
40287;DHT22;25998;46.604;13.610;2024-03-02T12:08:06;11.50;99.90
40287;DHT22;25998;46.604;13.610;2024-03-02T12:11:17;12.00;99.90
40287;DHT22;25998;46.604;13.610;2024-03-02T12:14:28;12.00;99.90
40287;DHT22;25998;46.604;13.610;2024-03-02T12:17:39;11.80;99.90
40287;DHT22;25998;46.604;13.610;2024-03-02T12:20:50;11.70;99.90
40287;DHT22;25998;46.604;13.610;2024-03-02T12:24:07;11.80;99.90
40287;DHT22;25998;46.604;13.610;2024-03-02T12:27:18;11.80;99.90
40287;DHT22;25998;46.604;13.610;2024-03-02T12:30:35;11.70;99.90
40287;DHT22;25998;46.604;13.610;2024-03-02T12:33:46;11.50;99.90
40287;DHT22;25998;46.604;13.610;2024-03-02T12:36:57;11.40;99.90
40287;DHT22;25998;46.604;13.610;2024-03-02T12:40:13;11.30;99.90
40287;DHT22;25998;46.604;13.610;2024-03-02T12:43:29;11.30;99.90
40287;DHT22;25998;46.604;13.610;2024-03-02T12:46:41;11.30;99.90
40287;DHT22;25998;46.604;13.610;2024-03-02T12:49:52;11.20;99.90
40287;DHT22;25998;46.604;13.610;2024-03-02T12:53:03;11.10;99.90
40287;DHT22;25998;46.604;13.610;2024-03-02T12:56:14;11.30;99.90
40287;DHT22;25998;46.604;13.610;2024-03-02T12:59:25;11.30;99.90
40287;DHT22;25998;46.604;13.610;2024-03-02T13:02:42;11.40;99.90
40287;DHT22;25998;46.604;13.610;2024-03-02T13:05:53;11.50;99.90
40287;DHT22;25998;46.604;13.610;2024-03-02T13:09:04;11.50;99.90
40287;DHT22;25998;46.604;13.610;2024-03-02T13:12:19;11.60;99.90
40287;DHT22;25998;46.604;13.610;2024-03-02T13:15:33;11.70;99.90
40287;DHT22;25998;46.604;13.610;2024-03-02T13:18:44;11.60;99.90
40287;DHT22;25998;46.604;13.610;2024-03-02T13:21:55;11.50;99.90
40287;DHT22;25998;46.604;13.610;2024-03-02T13:25:07;11.50;99.90
40287;DHT22;25998;46.604;13.610;2024-03-02T13:28:20;11.70;99.90
40287;DHT22;25998;46.604;13.610;2024-03-02T13:31:31;11.80;99.90
40287;DHT22;25998;46.604;13.610;2024-03-02T13:34:43;11.80;99.90
40287;DHT22;25998;46.604;13.610;2024-03-02T13:37:54;11.80;99.90
40287;DHT22;25998;46.604;13.610;2024-03-02T13:41:05;12.00;99.90
40287;DHT22;25998;46.604;13.610;2024-03-02T13:44:16;12.00;99.90
40287;DHT22;25998;46.604;13.610;2024-03-02T13:47:27;11.90;99.90
40287;DHT22;25998;46.604;13.610;2024-03-02T13:50:38;11.80;99.90
40287;DHT22;25998;46.604;13.610;2024-03-02T13:53:48;11.90;99.90
40287;DHT22;25998;46.604;13.610;2024-03-02T13:57:00;12.00;99.90
40287;DHT22;25998;46.604;13.610;2024-03-02T14:00:11;12.10;99.90
40287;DHT22;25998;46.604;13.610;2024-03-02T14:03:23;12.20;99.90
40287;DHT22;25998;46.604;13.610;2024-03-02T14:06:34;12.20;99.90
40287;DHT22;25998;46.604;13.610;2024-03-02T14:09:45;12.30;99.90
40287;DHT22;25998;46.604;13.610;2024-03-02T14:12:57;12.30;99.90
40287;DHT22;25998;46.604;13.610;2024-03-02T14:16:08;12.30;99.90
40287;DHT22;25998;46.604;13.610;2024-03-02T14:19:20;12.20;99.90
40287;DHT22;25998;46.604;13.610;2024-03-02T14:22:32;12.20;99.90
40287;DHT22;25998;46.604;13.610;2024-03-02T14:25:44;12.20;99.90
40287;DHT22;25998;46.604;13.610;2024-03-02T14:28:55;12.30;99.90
40287;DHT22;25998;46.604;13.610;2024-03-02T14:32:06;12.30;99.90
40287;DHT22;25998;46.604;13.610;2024-03-02T14:35:17;12.20;99.90
40287;DHT22;25998;46.604;13.610;2024-03-02T14:38:29;12.20;99.90
40287;DHT22;25998;46.604;13.610;2024-03-02T14:41:39;12.20;99.90
40287;DHT22;25998;46.604;13.610;2024-03-02T14:44:50;12.30;99.90
40287;DHT22;25998;46.604;13.610;2024-03-02T14:48:01;12.40;99.90
40287;DHT22;25998;46.604;13.610;2024-03-02T14:51:13;12.40;99.90
40287;DHT22;25998;46.604;13.610;2024-03-02T14:54:24;12.30;99.90
40287;DHT22;25998;46.604;13.610;2024-03-02T14:57:35;12.10;99.90
40287;DHT22;25998;46.604;13.610;2024-03-02T15:00:46;12.00;99.90
40287;DHT22;25998;46.604;13.610;2024-03-02T15:03:57;12.10;99.90
40287;DHT22;25998;46.604;13.610;2024-03-02T15:07:08;12.20;99.90
40287;DHT22;25998;46.604;13.610;2024-03-02T15:10:19;12.00;99.90
40287;DHT22;25998;46.604;13.610;2024-03-02T15:13:30;11.90;99.90
40287;DHT22;25998;46.604;13.610;2024-03-02T15:16:42;11.90;99.90
40287;DHT22;25998;46.604;13.610;2024-03-02T15:19:53;11.80;99.90
40287;DHT22;25998;46.604;13.610;2024-03-02T15:23:04;11.70;99.90
40287;DHT22;25998;46.604;13.610;2024-03-02T15:26:15;11.60;99.90
40287;DHT22;25998;46.604;13.610;2024-03-02T15:29:26;11.60;99.90
40287;DHT22;25998;46.604;13.610;2024-03-02T15:32:40;11.70;99.90
40287;DHT22;25998;46.604;13.610;2024-03-02T15:35:50;11.60;99.90
40287;DHT22;25998;46.604;13.610;2024-03-02T15:39:01;11.70;99.90
40287;DHT22;25998;46.604;13.610;2024-03-02T15:42:13;11.50;99.90
40287;DHT22;25998;46.604;13.610;2024-03-02T15:45:24;11.60;99.90
40287;DHT22;25998;46.604;13.610;2024-03-02T15:48:41;11.60;99.90
40287;DHT22;25998;46.604;13.610;2024-03-02T15:51:52;11.60;99.90
40287;DHT22;25998;46.604;13.610;2024-03-02T15:55:03;11.60;99.90
40287;DHT22;25998;46.604;13.610;2024-03-02T15:58:17;11.70;99.90
40287;DHT22;25998;46.604;13.610;2024-03-02T16:01:28;11.60;99.90
40287;DHT22;25998;46.604;13.610;2024-03-02T16:04:39;11.60;99.90
40287;DHT22;25998;46.604;13.610;2024-03-02T16:07:50;11.40;99.90
40287;DHT22;25998;46.604;13.610;2024-03-02T16:11:02;11.20;99.90
40287;DHT22;25998;46.604;13.610;2024-03-02T16:14:14;11.10;99.90
40287;DHT22;25998;46.604;13.610;2024-03-02T16:17:25;11.10;99.90
40287;DHT22;25998;46.604;13.610;2024-03-02T16:20:36;11.00;99.90
40287;DHT22;25998;46.604;13.610;2024-03-02T16:23:47;10.80;99.90
40287;DHT22;25998;46.604;13.610;2024-03-02T16:26:58;10.70;99.90
40287;DHT22;25998;46.604;13.610;2024-03-02T16:30:09;10.70;99.90
40287;DHT22;25998;46.604;13.610;2024-03-02T16:33:20;10.70;99.90
40287;DHT22;25998;46.604;13.610;2024-03-02T16:36:31;10.50;99.90
40287;DHT22;25998;46.604;13.610;2024-03-02T16:39:45;10.50;99.90
40287;DHT22;25998;46.604;13.610;2024-03-02T16:42:56;10.60;99.90
40287;DHT22;25998;46.604;13.610;2024-03-02T16:46:06;10.40;99.90
40287;DHT22;25998;46.604;13.610;2024-03-02T16:49:19;10.30;99.90
40287;DHT22;25998;46.604;13.610;2024-03-02T16:52:30;10.20;99.90
40287;DHT22;25998;46.604;13.610;2024-03-02T16:55:41;10.20;99.90
40287;DHT22;25998;46.604;13.610;2024-03-02T16:58:53;10.10;99.90
40287;DHT22;25998;46.604;13.610;2024-03-02T17:02:04;10.10;99.90
40287;DHT22;25998;46.604;13.610;2024-03-02T17:05:15;10.10;99.90
40287;DHT22;25998;46.604;13.610;2024-03-02T17:08:26;10.10;99.90
40287;DHT22;25998;46.604;13.610;2024-03-02T17:11:37;10.10;99.90
40287;DHT22;25998;46.604;13.610;2024-03-02T17:14:47;10.00;99.90
40287;DHT22;25998;46.604;13.610;2024-03-02T17:17:58;9.90;99.90
40287;DHT22;25998;46.604;13.610;2024-03-02T17:21:09;9.80;99.90
40287;DHT22;25998;46.604;13.610;2024-03-02T17:24:20;9.80;99.90
40287;DHT22;25998;46.604;13.610;2024-03-02T17:27:31;9.90;99.90
40287;DHT22;25998;46.604;13.610;2024-03-02T17:30:42;9.90;99.90
40287;DHT22;25998;46.604;13.610;2024-03-02T17:33:53;9.90;99.90
40287;DHT22;25998;46.604;13.610;2024-03-02T17:37:04;9.90;99.90
40287;DHT22;25998;46.604;13.610;2024-03-02T17:40:15;9.80;99.90
40287;DHT22;25998;46.604;13.610;2024-03-02T17:43:26;9.80;99.90
40287;DHT22;25998;46.604;13.610;2024-03-02T17:46:36;9.60;99.90
40287;DHT22;25998;46.604;13.610;2024-03-02T17:49:47;9.70;99.90
40287;DHT22;25998;46.604;13.610;2024-03-02T17:52:58;9.60;99.90
40287;DHT22;25998;46.604;13.610;2024-03-02T17:56:09;9.60;99.90
40287;DHT22;25998;46.604;13.610;2024-03-02T17:59:21;9.50;99.90
40287;DHT22;25998;46.604;13.610;2024-03-02T18:02:32;9.30;99.90
40287;DHT22;25998;46.604;13.610;2024-03-02T18:05:46;9.30;99.90
40287;DHT22;25998;46.604;13.610;2024-03-02T18:08:56;9.50;99.90
40287;DHT22;25998;46.604;13.610;2024-03-02T18:12:08;9.60;99.90
40287;DHT22;25998;46.604;13.610;2024-03-02T18:15:19;9.50;99.90
40287;DHT22;25998;46.604;13.610;2024-03-02T18:18:29;9.50;99.90
40287;DHT22;25998;46.604;13.610;2024-03-02T18:21:40;9.40;99.90
40287;DHT22;25998;46.604;13.610;2024-03-02T18:24:51;9.20;99.90
40287;DHT22;25998;46.604;13.610;2024-03-02T18:28:02;9.20;99.90
40287;DHT22;25998;46.604;13.610;2024-03-02T18:31:13;9.10;99.90
40287;DHT22;25998;46.604;13.610;2024-03-02T18:34:24;9.10;99.90
40287;DHT22;25998;46.604;13.610;2024-03-02T18:37:38;9.00;99.90
40287;DHT22;25998;46.604;13.610;2024-03-02T18:40:48;9.00;99.90
40287;DHT22;25998;46.604;13.610;2024-03-02T18:43:59;8.90;99.90
40287;DHT22;25998;46.604;13.610;2024-03-02T18:47:10;8.90;99.90
40287;DHT22;25998;46.604;13.610;2024-03-02T18:50:22;8.90;99.90
40287;DHT22;25998;46.604;13.610;2024-03-02T18:53:33;8.90;99.90
40287;DHT22;25998;46.604;13.610;2024-03-02T18:56:44;8.90;99.90
40287;DHT22;25998;46.604;13.610;2024-03-02T18:59:55;8.90;99.90
40287;DHT22;25998;46.604;13.610;2024-03-02T19:03:06;8.90;99.90
40287;DHT22;25998;46.604;13.610;2024-03-02T19:06:17;8.80;99.90
40287;DHT22;25998;46.604;13.610;2024-03-02T19:09:27;8.80;99.90
40287;DHT22;25998;46.604;13.610;2024-03-02T19:12:38;8.80;99.90
40287;DHT22;25998;46.604;13.610;2024-03-02T19:15:49;8.70;99.90
40287;DHT22;25998;46.604;13.610;2024-03-02T19:19:00;8.80;99.90
40287;DHT22;25998;46.604;13.610;2024-03-02T19:22:11;8.90;99.90
40287;DHT22;25998;46.604;13.610;2024-03-02T19:25:22;9.00;99.90
40287;DHT22;25998;46.604;13.610;2024-03-02T19:28:33;9.10;99.90
40287;DHT22;25998;46.604;13.610;2024-03-02T19:31:44;8.90;99.90
40287;DHT22;25998;46.604;13.610;2024-03-02T19:34:55;8.80;99.90
40287;DHT22;25998;46.604;13.610;2024-03-02T19:38:05;8.80;99.90
40287;DHT22;25998;46.604;13.610;2024-03-02T19:41:17;8.80;99.90
40287;DHT22;25998;46.604;13.610;2024-03-02T19:44:28;8.70;99.90
40287;DHT22;25998;46.604;13.610;2024-03-02T19:47:43;8.70;99.90
40287;DHT22;25998;46.604;13.610;2024-03-02T19:50:56;8.70;99.90
40287;DHT22;25998;46.604;13.610;2024-03-02T19:54:07;8.70;99.90
40287;DHT22;25998;46.604;13.610;2024-03-02T19:57:18;8.70;99.90
40287;DHT22;25998;46.604;13.610;2024-03-02T20:00:29;8.60;99.90
40287;DHT22;25998;46.604;13.610;2024-03-02T20:03:40;8.60;99.90
40287;DHT22;25998;46.604;13.610;2024-03-02T20:06:54;8.50;99.90